Time;durP1;ratioP1;P1;durP2;ratioP2;P2;SDS_P1;SDS_P2;PMS_P1;PMS_P2;Temp;Humidity;BMP_temperature;BMP_pressure;BME280_temperature;BME280_humidity;BME280_pressure;Samples;Min_cycle;Max_cycle;Signal;HPM_P1;HPM_P2
2023/04/01 00:01:48;;;;;;;1.80;1.60;;;;;;;;;;5096613;28;20474;-74
2023/04/01 00:04:16;;;;;;;2.80;1.63;;;;;;;;;;5096430;28;20447;-74
2023/04/01 00:06:43;;;;;;;2.03;1.20;;;;;;;;;;5096003;28;20494;-74
2023/04/01 00:09:10;;;;;;;3.60;1.47;;;;;;;;;;5096597;28;20797;-74
2023/04/01 00:11:38;;;;;;;3.50;1.27;;;;;;;;;;5096540;28;20836;-74
2023/04/01 00:14:06;;;;;;;1.87;1.27;;;;;;;;;;5096295;28;20446;-74
2023/04/01 00:16:35;;;;;;;4.67;1.53;;;;;;;;;;5096392;28;20803;-74
2023/04/01 00:19:02;;;;;;;2.30;1.20;;;;;;;;;;5096138;28;20446;-74
2023/04/01 00:21:30;;;;;;;3.23;1.83;;;;;;;;;;5096126;28;20470;-74
2023/04/01 00:23:57;;;;;;;4.00;1.17;;;;;;;;;;5095934;28;20458;-77
2023/04/01 00:26:25;;;;;;;3.50;1.30;;;;;;;;;;5095975;28;20544;-77
2023/04/01 00:28:52;;;;;;;2.30;1.10;;;;;;;;;;5096157;28;20840;-76
2023/04/01 00:31:19;;;;;;;2.00;1.10;;;;;;;;;;5095727;28;20481;-74
2023/04/01 00:33:48;;;;;;;2.90;1.17;;;;;;;;;;5096122;28;20500;-74
2023/04/01 00:36:16;;;;;;;4.40;1.30;;;;;;;;;;5095894;28;20834;-74
2023/04/01 00:38:43;;;;;;;3.10;1.13;;;;;;;;;;5095820;28;20458;-74
2023/04/01 00:41:14;;;;;;;3.70;1.07;;;;;;;;;;5095850;28;20510;-74
2023/04/01 00:43:41;;;;;;;1.83;1.10;;;;;;;;;;5095906;28;20516;-74
2023/04/01 00:46:08;;;;;;;2.40;1.40;;;;;;;;;;5095526;28;20493;-74
2023/04/01 00:48:38;;;;;;;2.30;1.60;;;;;;;;;;5095598;28;20939;-74
2023/04/01 00:51:08;;;;;;;1.93;1.10;;;;;;;;;;5095646;28;20478;-74
2023/04/01 00:53:37;;;;;;;2.80;1.60;;;;;;;;;;5095967;28;20457;-74
2023/04/01 00:56:07;;;;;;;2.13;1.00;;;;;;;;;;5095572;28;20447;-74
2023/04/01 00:58:35;;;;;;;4.47;1.30;;;;;;;;;;5095358;28;20970;-74
2023/04/01 01:01:03;;;;;;;1.97;0.90;;;;;;;;;;5095782;28;20470;-74
2023/04/01 01:03:30;;;;;;;7.47;1.50;;;;;;;;;;5095493;28;20478;-74
2023/04/01 01:06:12;;;;;;;2.00;1.40;;;;;;;;;;5095315;28;20926;-74
2023/04/01 01:08:47;;;;;;;2.30;1.20;;;;;;;;;;5095679;28;20923;-74
2023/04/01 01:11:15;;;;;;;2.30;1.07;;;;;;;;;;5095406;28;20481;-74
2023/04/01 01:13:45;;;;;;;2.60;0.90;;;;;;;;;;5095667;28;20447;-74
2023/04/01 01:16:15;;;;;;;4.67;1.07;;;;;;;;;;5095190;28;20450;-74
2023/04/01 01:18:46;;;;;;;4.17;1.30;;;;;;;;;;5095615;28;20802;-74
2023/04/01 01:21:33;;;;;;;2.70;1.10;;;;;;;;;;5095437;28;20471;-75
2023/04/01 01:24:23;;;;;;;1.70;1.07;;;;;;;;;;5095396;28;20483;-75
2023/04/01 01:26:53;;;;;;;1.43;1.10;;;;;;;;;;5094894;28;20493;-76
2023/04/01 01:29:33;;;;;;;2.50;0.97;;;;;;;;;;5094823;28;20459;-76
2023/04/01 01:32:05;;;;;;;1.20;0.80;;;;;;;;;;5094682;28;21009;-76
2023/04/01 01:34:36;;;;;;;2.70;1.10;;;;;;;;;;5094572;28;20455;-76
2023/04/01 01:37:10;;;;;;;1.20;0.73;;;;;;;;;;5094623;28;20993;-76
2023/04/01 01:39:37;;;;;;;1.80;1.00;;;;;;;;;;5094495;28;20465;-76
2023/04/01 01:42:06;;;;;;;1.20;0.80;;;;;;;;;;5094360;28;20471;-76
2023/04/01 01:44:35;;;;;;;1.33;0.90;;;;;;;;;;5093773;28;20874;-76
2023/04/01 01:47:02;;;;;;;1.30;0.80;;;;;;;;;;5094433;28;20494;-77
2023/04/01 01:49:31;;;;;;;2.03;0.80;;;;;;;;;;5094295;28;20455;-77
2023/04/01 01:52:01;;;;;;;1.70;0.80;;;;;;;;;;5094260;28;20991;-77
2023/04/01 01:54:30;;;;;;;1.30;0.80;;;;;;;;;;5094159;28;20797;-76
2023/04/01 01:57:05;;;;;;;1.30;0.80;;;;;;;;;;5094604;28;20443;-77
2023/04/01 01:59:34;;;;;;;3.40;0.80;;;;;;;;;;5094385;28;20877;-77
2023/04/01 02:02:07;;;;;;;3.30;0.80;;;;;;;;;;5096114;28;20478;-75
2023/04/01 02:04:35;;;;;;;1.87;0.83;;;;;;;;;;5097621;28;20903;-75
2023/04/01 02:07:04;;;;;;;1.70;1.10;;;;;;;;;;5097150;28;20490;-75
2023/04/01 02:09:34;;;;;;;2.93;1.00;;;;;;;;;;5097746;28;20443;-75
2023/04/01 02:12:02;;;;;;;1.30;0.93;;;;;;;;;;5097940;28;20471;-75
2023/04/01 02:14:31;;;;;;;1.67;1.00;;;;;;;;;;5097561;28;20457;-75
2023/04/01 02:16:59;;;;;;;2.80;1.10;;;;;;;;;;5098062;28;20443;-75
2023/04/01 02:19:29;;;;;;;1.90;1.40;;;;;;;;;;5097011;28;20451;-75
2023/04/01 02:21:59;;;;;;;1.50;0.80;;;;;;;;;;5096977;28;20478;-76
2023/04/01 02:24:27;;;;;;;2.37;1.10;;;;;;;;;;5096023;28;20451;-75
2023/04/01 02:26:56;;;;;;;1.73;0.90;;;;;;;;;;5096762;28;20490;-75
2023/04/01 02:29:25;;;;;;;1.30;0.80;;;;;;;;;;5097004;28;20943;-75
2023/04/01 02:31:53;;;;;;;1.30;0.90;;;;;;;;;;5094492;28;20982;-74
2023/04/01 02:34:21;;;;;;;2.13;1.00;;;;;;;;;;5094948;28;20542;-75
2023/04/01 02:36:48;;;;;;;4.17;1.33;;;;;;;;;;5096089;28;20451;-75
2023/04/01 02:39:15;;;;;;;3.30;1.00;;;;;;;;;;5095766;28;20470;-75
2023/04/01 02:41:43;;;;;;;2.30;1.10;;;;;;;;;;5095501;28;20478;-75
2023/04/01 02:44:12;;;;;;;2.37;1.27;;;;;;;;;;5095687;28;20462;-75
2023/04/01 02:46:39;;;;;;;2.93;1.10;;;;;;;;;;5095605;28;20491;-75
2023/04/01 02:49:07;;;;;;;2.23;1.27;;;;;;;;;;5095323;28;20451;-75
2023/04/01 02:51:34;;;;;;;1.63;1.00;;;;;;;;;;5095532;28;20474;-75
2023/04/01 02:54:01;;;;;;;2.20;1.10;;;;;;;;;;5095250;28;20451;-75
2023/04/01 02:56:28;;;;;;;2.43;1.00;;;;;;;;;;5094271;28;20462;-76
2023/04/01 02:58:55;;;;;;;1.40;1.00;;;;;;;;;;5095347;28;20458;-76
2023/04/01 03:01:24;;;;;;;2.17;1.00;;;;;;;;;;5095229;28;20841;-76
2023/04/01 03:03:51;;;;;;;1.50;0.80;;;;;;;;;;5095894;28;20455;-76
2023/04/01 03:06:22;;;;;;;1.73;1.17;;;;;;;;;;5094493;28;20483;-75
2023/04/01 03:08:49;;;;;;;1.73;0.80;;;;;;;;;;5095059;28;20461;-76
2023/04/01 03:11:16;;;;;;;2.50;1.00;;;;;;;;;;5095392;28;20471;-76
2023/04/01 03:13:43;;;;;;;1.77;0.80;;;;;;;;;;5094969;28;20457;-76
2023/04/01 03:16:10;;;;;;;2.70;0.80;;;;;;;;;;5095051;28;20490;-76
2023/04/01 03:18:39;;;;;;;7.20;0.90;;;;;;;;;;5095242;28;20462;-77
2023/04/01 03:21:17;;;;;;;10.53;1.27;;;;;;;;;;5095051;28;20474;-76
2023/04/01 03:23:44;;;;;;;1.40;0.90;;;;;;;;;;5095329;28;20874;-76
2023/04/01 03:26:12;;;;;;;4.03;0.90;;;;;;;;;;5095405;28;21015;-76
2023/04/01 03:28:39;;;;;;;2.03;0.80;;;;;;;;;;5095548;28;20446;-76
2023/04/01 03:31:06;;;;;;;1.90;1.07;;;;;;;;;;5095200;28;20478;-76
2023/04/01 03:33:33;;;;;;;3.10;0.90;;;;;;;;;;5094863;28;20447;-76
2023/04/01 03:36:03;;;;;;;2.30;0.90;;;;;;;;;;5094400;28;20534;-75
2023/04/01 03:38:30;;;;;;;1.23;0.83;;;;;;;;;;5093670;28;20471;-76
2023/04/01 03:40:57;;;;;;;2.13;1.20;;;;;;;;;;5094077;28;20468;-76
2023/04/01 03:43:25;;;;;;;2.00;1.00;;;;;;;;;;5094290;28;20959;-76
2023/04/01 03:45:54;;;;;;;3.77;1.30;;;;;;;;;;5093209;28;20459;-75
2023/04/01 03:48:21;;;;;;;2.27;1.20;;;;;;;;;;5092702;28;20516;-74
2023/04/01 03:50:48;;;;;;;3.27;1.17;;;;;;;;;;5093304;28;20497;-75
2023/04/01 03:53:17;;;;;;;2.57;1.07;;;;;;;;;;5093051;28;20553;-74
2023/04/01 03:55:44;;;;;;;3.30;1.07;;;;;;;;;;5094673;28;20439;-75
2023/04/01 03:58:12;;;;;;;1.40;0.90;;;;;;;;;;5095778;28;20501;-75
2023/04/01 04:00:39;;;;;;;2.10;0.80;;;;;;;;;;5095284;28;20462;-75
2023/04/01 04:03:07;;;;;;;1.43;0.90;;;;;;;;;;5095167;28;20454;-75
2023/04/01 04:05:34;;;;;;;2.53;1.00;;;;;;;;;;5094811;28;20462;-76
2023/04/01 04:08:11;;;;;;;2.20;0.90;;;;;;;;;;5096626;28;20490;-75
2023/04/01 04:10:41;;;;;;;2.57;1.00;;;;;;;;;;5096872;28;20505;-74
2023/04/01 04:13:08;;;;;;;3.90;1.00;;;;;;;;;;5096803;28;20455;-74
2023/04/01 04:15:35;;;;;;;4.20;1.30;;;;;;;;;;5096478;28;20451;-74
2023/04/01 04:18:02;;;;;;;3.37;1.77;;;;;;;;;;5096681;28;20454;-74
2023/04/01 04:20:29;;;;;;;4.50;1.00;;;;;;;;;;5096669;28;20435;-74
2023/04/01 04:22:56;;;;;;;2.73;0.80;;;;;;;;;;5096258;28;20450;-74
2023/04/01 04:25:23;;;;;;;2.60;0.83;;;;;;;;;;5096577;28;20923;-74
2023/04/01 04:27:52;;;;;;;1.70;1.00;;;;;;;;;;5096450;28;20490;-74
2023/04/01 04:30:19;;;;;;;2.23;1.13;;;;;;;;;;5096272;28;20939;-74
2023/04/01 04:32:46;;;;;;;1.40;0.90;;;;;;;;;;5096212;28;20475;-74
2023/04/01 04:35:13;;;;;;;1.50;0.87;;;;;;;;;;5095930;28;20450;-74
2023/04/01 04:37:40;;;;;;;3.10;0.80;;;;;;;;;;5095767;28;20446;-74
2023/04/01 04:40:08;;;;;;;1.43;0.80;;;;;;;;;;5095705;28;20457;-74
2023/04/01 04:42:35;;;;;;;1.20;0.73;;;;;;;;;;5095817;28;20471;-73
2023/04/01 04:45:04;;;;;;;1.70;0.70;;;;;;;;;;5095493;28;20470;-74
2023/04/01 04:47:31;;;;;;;1.40;0.80;;;;;;;;;;5095720;28;20508;-74
2023/04/01 04:49:58;;;;;;;1.60;0.80;;;;;;;;;;5095716;28;20450;-74
2023/04/01 04:52:25;;;;;;;1.30;0.80;;;;;;;;;;5095517;28;20470;-74
2023/04/01 04:54:52;;;;;;;2.30;0.80;;;;;;;;;;5095412;28;20459;-74
2023/04/01 04:57:21;;;;;;;1.87;0.87;;;;;;;;;;5094107;28;20469;-74
2023/04/01 04:59:48;;;;;;;1.10;0.70;;;;;;;;;;5095430;28;20463;-74
2023/04/01 05:02:16;;;;;;;1.60;1.10;;;;;;;;;;5094931;28;20474;-74
2023/04/01 05:04:43;;;;;;;1.17;0.77;;;;;;;;;;5095189;28;20461;-74
2023/04/01 05:07:10;;;;;;;1.10;0.70;;;;;;;;;;5094690;28;20486;-74
2023/04/01 05:09:37;;;;;;;1.20;0.73;;;;;;;;;;5095269;28;20457;-74
2023/04/01 05:12:05;;;;;;;1.20;0.90;;;;;;;;;;5095635;28;20475;-74
2023/04/01 05:14:32;;;;;;;1.73;0.80;;;;;;;;;;5095062;28;20462;-74
2023/04/01 05:16:59;;;;;;;1.50;1.10;;;;;;;;;;5094872;28;20466;-74
2023/04/01 05:19:27;;;;;;;1.23;0.80;;;;;;;;;;5094113;28;20932;-73
2023/04/01 05:21:55;;;;;;;2.63;1.47;;;;;;;;;;5094803;28;20541;-74
2023/04/01 05:24:22;;;;;;;5.87;1.20;;;;;;;;;;5094458;28;20837;-73
2023/04/01 05:26:49;;;;;;;1.90;0.97;;;;;;;;;;5094716;28;20493;-74
2023/04/01 05:29:16;;;;;;;1.40;1.00;;;;;;;;;;5094938;28;20805;-74
2023/04/01 05:31:43;;;;;;;1.50;1.00;;;;;;;;;;5094449;28;20475;-74
2023/04/01 05:34:10;;;;;;;1.77;1.17;;;;;;;;;;5094461;28;20928;-74
2023/04/01 05:36:39;;;;;;;1.30;0.90;;;;;;;;;;5094464;28;20454;-74
2023/04/01 05:39:06;;;;;;;3.53;2.67;;;;;;;;;;5094742;28;20493;-74
2023/04/01 05:41:33;;;;;;;2.13;1.23;;;;;;;;;;5094713;28;20475;-74
2023/04/01 05:44:00;;;;;;;1.40;0.90;;;;;;;;;;5094167;28;20454;-74
2023/04/01 05:46:27;;;;;;;1.87;1.00;;;;;;;;;;5094299;28;20478;-74
2023/04/01 05:48:54;;;;;;;1.40;1.10;;;;;;;;;;5094240;28;20493;-74
2023/04/01 05:51:21;;;;;;;1.60;0.93;;;;;;;;;;5094331;28;20491;-74
2023/04/01 05:53:50;;;;;;;2.23;1.20;;;;;;;;;;5094024;28;20458;-73
2023/04/01 05:56:17;;;;;;;2.80;1.00;;;;;;;;;;5093985;28;20451;-74
2023/04/01 05:58:44;;;;;;;2.47;0.90;;;;;;;;;;5094264;28;20447;-74
2023/04/01 06:01:12;;;;;;;1.30;0.90;;;;;;;;;;5094123;28;21062;-73
2023/04/01 06:03:40;;;;;;;2.13;1.10;;;;;;;;;;5093960;28;20820;-73
2023/04/01 06:06:15;;;;;;;1.60;1.00;;;;;;;;;;5093591;28;20453;-74
2023/04/01 06:08:42;;;;;;;1.80;1.13;;;;;;;;;;5094272;28;20474;-74
2023/04/01 06:11:18;;;;;;;1.63;1.00;;;;;;;;;;5093916;28;20495;-73
2023/04/01 06:13:53;;;;;;;3.00;1.10;;;;;;;;;;5093794;28;20460;-73
2023/04/01 06:16:26;;;;;;;2.23;1.23;;;;;;;;;;5093721;28;20522;-74
2023/04/01 06:19:06;;;;;;;3.33;1.40;;;;;;;;;;5093907;28;20963;-73
2023/04/01 06:21:42;;;;;;;1.90;0.90;;;;;;;;;;5093501;28;20490;-73
2023/04/01 06:24:16;;;;;;;1.30;0.90;;;;;;;;;;5095084;28;20435;-75
2023/04/01 06:26:49;;;;;;;1.70;1.10;;;;;;;;;;5095096;28;20462;-75
2023/04/01 06:29:26;;;;;;;1.50;1.10;;;;;;;;;;5096085;28;20538;-75
2023/04/01 06:32:03;;;;;;;2.00;1.10;;;;;;;;;;5095595;28;20471;-75
2023/04/01 06:34:57;;;;;;;1.70;1.20;;;;;;;;;;5095026;28;20824;-75
2023/04/01 06:37:29;;;;;;;1.97;1.40;;;;;;;;;;5059713;28;20458;-75
2023/04/01 06:40:14;;;;;;;1.90;1.43;;;;;;;;;;5095571;28;20455;-75
2023/04/01 06:42:49;;;;;;;2.80;1.60;;;;;;;;;;5095052;28;20513;-75
2023/04/01 06:45:22;;;;;;;1.50;1.20;;;;;;;;;;5094643;28;20507;-74
2023/04/01 06:48:00;;;;;;;2.80;1.00;;;;;;;;;;5094275;28;20500;-74
2023/04/01 06:50:30;;;;;;;3.63;1.47;;;;;;;;;;5093639;28;20442;-74
2023/04/01 06:53:01;;;;;;;1.40;1.07;;;;;;;;;;5093703;28;20492;-74
2023/04/01 06:55:32;;;;;;;1.90;1.63;;;;;;;;;;5093170;28;20446;-74
2023/04/01 06:58:02;;;;;;;1.80;1.27;;;;;;;;;;5093569;28;20431;-74
2023/04/01 07:00:30;;;;;;;2.23;1.13;;;;;;;;;;5093319;28;20737;-74
2023/04/01 07:03:01;;;;;;;3.30;1.70;;;;;;;;;;5093660;28;20806;-74
2023/04/01 07:05:36;;;;;;;1.80;1.50;;;;;;;;;;5093399;28;20427;-74
2023/04/01 07:08:10;;;;;;;2.30;1.67;;;;;;;;;;5093867;28;20466;-75
2023/04/01 07:10:42;;;;;;;3.47;2.00;;;;;;;;;;5093207;28;20455;-75
2023/04/01 07:13:14;;;;;;;2.00;1.50;;;;;;;;;;5093435;28;20943;-74
2023/04/01 07:15:43;;;;;;;2.93;1.50;;;;;;;;;;5093187;28;20523;-74
2023/04/01 07:18:14;;;;;;;1.83;1.63;;;;;;;;;;5093314;28;20457;-74
2023/04/01 07:20:41;;;;;;;2.27;1.33;;;;;;;;;;5092980;28;20439;-74
2023/04/01 07:23:12;;;;;;;5.37;1.77;;;;;;;;;;5093262;28;20932;-74
2023/04/01 07:25:41;;;;;;;3.00;2.17;;;;;;;;;;5093578;28;20790;-75
2023/04/01 07:28:13;;;;;;;3.83;1.40;;;;;;;;;;5092906;28;20486;-74
2023/04/01 07:30:46;;;;;;;3.10;1.30;;;;;;;;;;5093210;28;20470;-75
2023/04/01 07:33:16;;;;;;;1.90;1.13;;;;;;;;;;5093142;28;20435;-74
2023/04/01 07:35:47;;;;;;;2.63;0.97;;;;;;;;;;5093077;28;20485;-75
2023/04/01 07:38:23;;;;;;;1.77;1.00;;;;;;;;;;5093058;28;20459;-75
2023/04/01 07:40:54;;;;;;;1.80;1.00;;;;;;;;;;5093118;28;20470;-75
2023/04/01 07:43:31;;;;;;;1.40;0.90;;;;;;;;;;5096517;28;20449;-73
2023/04/01 07:46:04;;;;;;;1.50;0.90;;;;;;;;;;5097170;28;20439;-74
2023/04/01 07:48:34;;;;;;;1.40;0.80;;;;;;;;;;5097266;28;20830;-74
2023/04/01 07:51:03;;;;;;;2.13;1.03;;;;;;;;;;5096683;28;20481;-74
2023/04/01 07:53:35;;;;;;;2.37;0.90;;;;;;;;;;5096807;28;20446;-74
2023/04/01 07:56:06;;;;;;;2.80;1.00;;;;;;;;;;5097052;28;20438;-74
2023/04/01 07:58:35;;;;;;;3.40;2.40;;;;;;;;;;5096574;28;20431;-74
2023/04/01 08:01:07;;;;;;;2.80;1.77;;;;;;;;;;5096984;28;20478;-74
2023/04/01 08:03:37;;;;;;;1.97;1.10;;;;;;;;;;5096865;28;20443;-74
2023/04/01 08:06:08;;;;;;;2.37;1.23;;;;;;;;;;5096566;28;20931;-74
2023/04/01 08:08:40;;;;;;;1.90;1.40;;;;;;;;;;5096712;28;20477;-73
2023/04/01 08:11:13;;;;;;;3.30;1.83;;;;;;;;;;5096568;28;20482;-74
2023/04/01 08:13:42;;;;;;;2.33;1.10;;;;;;;;;;5096609;28;20431;-74
2023/04/01 08:16:15;;;;;;;1.50;0.97;;;;;;;;;;5096527;28;20446;-74
2023/04/01 08:18:46;;;;;;;1.80;1.30;;;;;;;;;;5096539;28;20443;-74
2023/04/01 08:21:15;;;;;;;3.17;1.97;;;;;;;;;;5096541;28;20815;-73
2023/04/01 08:23:45;;;;;;;1.40;0.83;;;;;;;;;;5096166;28;20460;-76
2023/04/01 08:26:15;;;;;;;2.17;1.10;;;;;;;;;;5096065;28;20830;-76
2023/04/01 08:28:44;;;;;;;1.30;0.80;;;;;;;;;;5095910;28;20530;-76
2023/04/01 08:31:15;;;;;;;1.40;0.83;;;;;;;;;;5095747;28;20572;-75
2023/04/01 08:33:43;;;;;;;2.37;1.00;;;;;;;;;;5095917;28;20454;-76
2023/04/01 08:36:12;;;;;;;2.67;1.07;;;;;;;;;;5095834;28;20458;-76
2023/04/01 08:38:41;;;;;;;1.43;1.03;;;;;;;;;;5095840;28;20450;-75
2023/04/01 08:41:22;;;;;;;4.23;1.87;;;;;;;;;;5095847;28;20840;-76
2023/04/01 08:44:10;;;;;;;1.80;0.90;;;;;;;;;;5096288;28;20485;-77
2023/04/01 08:46:55;;;;;;;2.07;0.97;;;;;;;;;;5090901;28;20893;-75
2023/04/01 08:49:34;;;;;;;3.67;1.57;;;;;;;;;;5095553;28;20483;-75
2023/04/01 08:52:10;;;;;;;1.40;0.93;;;;;;;;;;5096345;28;21032;-77
2023/04/01 08:54:49;;;;;;;2.83;1.00;;;;;;;;;;5094032;28;20447;-75
2023/04/01 08:57:21;;;;;;;2.43;1.10;;;;;;;;;;5095566;28;20458;-74
2023/04/01 08:59:56;;;;;;;2.13;1.20;;;;;;;;;;5095544;28;20451;-75
2023/04/01 09:02:42;;;;;;;3.00;1.07;;;;;;;;;;5095500;28;20561;-75
2023/04/01 09:05:24;;;;;;;2.60;1.10;;;;;;;;;;5095772;28;20442;-75
2023/04/01 09:08:00;;;;;;;1.30;0.80;;;;;;;;;;5092935;28;20853;-76
2023/04/01 09:10:42;;;;;;;1.57;0.90;;;;;;;;;;5095363;28;20485;-74
2023/04/01 09:13:21;;;;;;;1.70;0.80;;;;;;;;;;5093003;28;20465;-76
2023/04/01 09:15:58;;;;;;;2.27;1.10;;;;;;;;;;5095376;28;20454;-76
2023/04/01 09:18:52;;;;;;;4.33;1.70;;;;;;;;;;5095662;28;20803;-76
2023/04/01 09:21:24;;;;;;;1.47;1.00;;;;;;;;;;5094868;27;20479;-75
2023/04/01 09:24:15;;;;;;;2.13;1.20;;;;;;;;;;5095127;28;20455;-76
2023/04/01 09:26:55;;;;;;;2.03;1.60;;;;;;;;;;5069464;28;20459;-76
2023/04/01 09:29:28;;;;;;;2.10;1.60;;;;;;;;;;5075136;28;20479;-76
2023/04/01 09:32:10;;;;;;;2.73;1.00;;;;;;;;;;5074598;28;20479;-77
2023/04/01 09:34:52;;;;;;;3.30;1.47;;;;;;;;;;5074260;28;20470;-77
2023/04/01 09:37:21;;;;;;;1.53;1.00;;;;;;;;;;5072531;28;20455;-77
2023/04/01 09:39:56;;;;;;;2.80;1.30;;;;;;;;;;5074259;28;20467;-76
2023/04/01 09:42:37;;;;;;;2.00;1.30;;;;;;;;;;5074225;28;20837;-76
2023/04/01 09:45:09;;;;;;;1.40;1.00;;;;;;;;;;5074358;28;20887;-75
2023/04/01 09:47:46;;;;;;;1.40;1.00;;;;;;;;;;5074073;28;20451;-75
2023/04/01 09:50:21;;;;;;;2.43;1.13;;;;;;;;;;5074357;28;20784;-76
2023/04/01 09:52:52;;;;;;;1.40;0.93;;;;;;;;;;5074069;28;20936;-76
2023/04/01 09:55:27;;;;;;;2.77;1.00;;;;;;;;;;5073798;28;20504;-76
2023/04/01 09:58:09;;;;;;;1.37;0.80;;;;;;;;;;5074107;28;20459;-76
2023/04/01 10:00:59;;;;;;;1.50;1.00;;;;;;;;;;5074033;28;20452;-76
2023/04/01 10:03:49;;;;;;;2.20;1.40;;;;;;;;;;5073754;28;20464;-76
2023/04/01 10:06:28;;;;;;;1.10;0.70;;;;;;;;;;5072967;28;20456;-76
2023/04/01 10:09:09;;;;;;;1.30;0.90;;;;;;;;;;5073906;28;20862;-76
2023/04/01 10:12:01;;;;;;;3.80;1.30;;;;;;;;;;5073682;28;20554;-76
2023/04/01 10:14:46;;;;;;;2.23;1.53;;;;;;;;;;5073371;28;20448;-75
2023/04/01 10:17:25;;;;;;;1.30;0.80;;;;;;;;;;5074311;28;20958;-76
2023/04/01 10:20:04;;;;;;;2.17;0.70;;;;;;;;;;5073979;28;20547;-77
2023/04/01 10:22:37;;;;;;;2.70;0.80;;;;;;;;;;5074159;28;20968;-76
2023/04/01 10:25:12;;;;;;;1.20;0.70;;;;;;;;;;5074448;28;20440;-76
2023/04/01 10:27:49;;;;;;;1.50;0.93;;;;;;;;;;5073849;28;20822;-76
2023/04/01 10:30:32;;;;;;;3.07;1.73;;;;;;;;;;5073924;28;20479;-76
2023/04/01 10:33:16;;;;;;;4.37;1.00;;;;;;;;;;5073666;28;20436;-76
2023/04/01 10:35:59;;;;;;;2.03;1.00;;;;;;;;;;5074459;28;20464;-76
2023/04/01 10:38:51;;;;;;;2.60;1.13;;;;;;;;;;5073441;28;20463;-77
2023/04/01 10:41:35;;;;;;;3.60;2.07;;;;;;;;;;5073770;28;20476;-76
2023/04/01 10:44:20;;;;;;;2.50;1.40;;;;;;;;;;5072986;28;20443;-77
2023/04/01 10:47:02;;;;;;;1.50;1.00;;;;;;;;;;5073689;28;20905;-76
2023/04/01 10:49:36;;;;;;;1.43;1.00;;;;;;;;;;5073040;28;20537;-75
2023/04/01 10:52:17;;;;;;;3.07;1.80;;;;;;;;;;5073321;28;20992;-76
2023/04/01 10:54:49;;;;;;;10.70;6.67;;;;;;;;;;5073643;28;20904;-77
2023/04/01 10:57:27;;;;;;;1.80;1.60;;;;;;;;;;5073150;28;20517;-77
2023/04/01 11:00:12;;;;;;;1.23;0.77;;;;;;;;;;5073442;28;20436;-77
2023/04/01 11:03:04;;;;;;;3.13;0.97;;;;;;;;;;5082881;28;20536;-77
2023/04/01 11:05:56;;;;;;;1.30;0.90;;;;;;;;;;5092788;28;20554;-75
2023/04/01 11:08:43;;;;;;;1.73;0.80;;;;;;;;;;5092567;28;20952;-77
2023/04/01 11:11:28;;;;;;;1.77;1.00;;;;;;;;;;5091926;28;20479;-77
2023/04/01 11:14:14;;;;;;;2.07;1.20;;;;;;;;;;5092268;28;20454;-76
2023/04/01 11:16:55;;;;;;;1.67;1.20;;;;;;;;;;5080928;28;20494;-76
2023/04/01 11:19:40;;;;;;;2.00;1.40;;;;;;;;;;5092304;28;20433;-78
2023/04/01 11:22:18;;;;;;;1.33;0.90;;;;;;;;;;5091937;28;20474;-77
2023/04/01 11:25:02;;;;;;;1.40;0.90;;;;;;;;;;5091793;28;20442;-76
2023/04/01 11:27:40;;;;;;;1.67;1.17;;;;;;;;;;5092094;28;21068;-75
2023/04/01 11:30:21;;;;;;;3.93;2.10;;;;;;;;;;5092012;28;20504;-76
2023/04/01 11:32:53;;;;;;;1.80;1.20;;;;;;;;;;5092126;28;20524;-76
2023/04/01 11:35:44;;;;;;;2.17;1.20;;;;;;;;;;5092365;28;20811;-76
2023/04/01 11:38:17;;;;;;;1.70;1.20;;;;;;;;;;5091724;28;20554;-76
2023/04/01 11:40:49;;;;;;;1.80;1.20;;;;;;;;;;5091672;28;20904;-76
2023/04/01 11:43:20;;;;;;;1.60;0.90;;;;;;;;;;5091607;28;20968;-75
2023/04/01 11:45:51;;;;;;;1.70;0.80;;;;;;;;;;5091774;28;20463;-76
2023/04/01 11:48:35;;;;;;;1.90;1.20;;;;;;;;;;5091386;28;20460;-75
2023/04/01 11:51:18;;;;;;;2.67;2.47;;;;;;;;;;5091609;28;20482;-75
2023/04/01 11:53:49;;;;;;;1.90;1.20;;;;;;;;;;5091825;28;20926;-75
2023/04/01 11:56:25;;;;;;;1.90;1.03;;;;;;;;;;5091556;28;20451;-75
2023/04/01 11:59:19;;;;;;;1.90;1.43;;;;;;;;;;5091288;28;20469;-75
2023/04/01 12:01:49;;;;;;;2.57;1.10;;;;;;;;;;5067260;28;20474;-76
2023/04/01 12:04:35;;;;;;;1.73;1.37;;;;;;;;;;5092702;28;20836;-75
2023/04/01 12:07:07;;;;;;;1.70;1.00;;;;;;;;;;5091841;28;20565;-76
2023/04/01 12:09:40;;;;;;;1.60;1.10;;;;;;;;;;5092815;28;20489;-76
2023/04/01 12:12:17;;;;;;;2.33;1.00;;;;;;;;;;5092394;28;20482;-76
2023/04/01 12:14:48;;;;;;;1.30;0.77;;;;;;;;;;5092491;28;20447;-76
2023/04/01 12:17:23;;;;;;;1.40;0.97;;;;;;;;;;5092732;28;20454;-76
2023/04/01 12:19:55;;;;;;;1.23;0.87;;;;;;;;;;5092455;28;20461;-76
2023/04/01 12:22:30;;;;;;;1.30;0.80;;;;;;;;;;5092522;28;20487;-76
2023/04/01 12:25:05;;;;;;;1.90;1.00;;;;;;;;;;5092287;28;20459;-75
2023/04/01 12:27:50;;;;;;;1.50;1.10;;;;;;;;;;5092646;28;20461;-76
2023/04/01 12:30:25;;;;;;;1.30;1.00;;;;;;;;;;5088817;27;20577;-76
2023/04/01 12:32:57;;;;;;;1.50;1.07;;;;;;;;;;5096090;28;20553;-76
2023/04/01 12:35:26;;;;;;;2.07;0.80;;;;;;;;;;5096234;28;20488;-75
2023/04/01 12:38:00;;;;;;;4.03;1.40;;;;;;;;;;5096070;28;20457;-75
2023/04/01 12:40:33;;;;;;;1.30;0.80;;;;;;;;;;5096097;28;20446;-76
2023/04/01 12:43:07;;;;;;;1.60;1.10;;;;;;;;;;5095733;28;20970;-76
2023/04/01 12:45:36;;;;;;;1.37;0.80;;;;;;;;;;5095698;28;20474;-76
2023/04/01 12:48:19;;;;;;;1.30;0.80;;;;;;;;;;5095847;28;20519;-76
2023/04/01 12:50:58;;;;;;;1.40;0.97;;;;;;;;;;5095702;28;20513;-75
2023/04/01 12:53:34;;;;;;;1.80;0.90;;;;;;;;;;5095746;28;20442;-76
2023/04/01 12:56:04;;;;;;;2.60;1.50;;;;;;;;;;5095567;28;20454;-76
2023/04/01 12:58:49;;;;;;;1.70;1.17;;;;;;;;;;5095553;28;20450;-76
2023/04/01 13:01:46;;;;;;;2.53;1.57;;;;;;;;;;5095319;28;20574;-76
2023/04/01 13:04:31;;;;;;;1.90;1.00;;;;;;;;;;5052924;28;20456;-76
2023/04/01 13:07:13;;;;;;;2.20;1.20;;;;;;;;;;5080607;27;20455;-76
2023/04/01 13:09:47;;;;;;;1.33;0.80;;;;;;;;;;5095775;28;20482;-74
2023/04/01 13:12:31;;;;;;;3.60;0.90;;;;;;;;;;5096026;28;20494;-74
2023/04/01 13:15:10;;;;;;;1.43;0.90;;;;;;;;;;5095788;28;20438;-73
2023/04/01 13:17:40;;;;;;;3.00;1.43;;;;;;;;;;5095487;28;20450;-74
2023/04/01 13:20:11;;;;;;;1.50;0.83;;;;;;;;;;5096037;28;20912;-73
2023/04/01 13:22:47;;;;;;;1.87;0.90;;;;;;;;;;5094616;28;20474;-73
2023/04/01 13:25:21;;;;;;;1.40;1.07;;;;;;;;;;5095428;28;20434;-73
2023/04/01 13:27:51;;;;;;;1.50;0.90;;;;;;;;;;5095067;28;20450;-73
2023/04/01 13:30:26;;;;;;;1.43;0.90;;;;;;;;;;5094946;28;20486;-74
2023/04/01 13:32:59;;;;;;;1.23;0.90;;;;;;;;;;5095072;28;20461;-76
2023/04/01 13:35:33;;;;;;;1.50;1.00;;;;;;;;;;5094714;28;20485;-73
2023/04/01 13:38:27;;;;;;;1.90;0.90;;;;;;;;;;5094568;28;20494;-74
2023/04/01 13:41:00;;;;;;;2.80;1.30;;;;;;;;;;5094143;28;20524;-72
2023/04/01 13:43:30;;;;;;;1.37;0.80;;;;;;;;;;5095260;28;20455;-75
2023/04/01 13:46:10;;;;;;;1.60;0.90;;;;;;;;;;5095651;28;20479;-74
2023/04/01 13:48:43;;;;;;;1.20;0.80;;;;;;;;;;5095514;28;20458;-74
2023/04/01 13:51:20;;;;;;;1.40;0.83;;;;;;;;;;5095011;28;20501;-74
2023/04/01 13:54:01;;;;;;;1.37;0.83;;;;;;;;;;5095121;28;21216;-74
2023/04/01 13:56:35;;;;;;;1.20;0.80;;;;;;;;;;5095165;28;20450;-74
2023/04/01 13:59:11;;;;;;;4.03;0.97;;;;;;;;;;5095371;28;20457;-74
2023/04/01 14:01:42;;;;;;;1.33;1.00;;;;;;;;;;5095498;28;20823;-74
2023/04/01 14:04:30;;;;;;;2.57;1.43;;;;;;;;;;5094942;28;20446;-74
2023/04/01 14:07:08;;;;;;;2.10;1.53;;;;;;;;;;5094114;28;20486;-72
2023/04/01 14:09:47;;;;;;;1.30;0.90;;;;;;;;;;5094115;28;20498;-72
2023/04/01 14:12:21;;;;;;;1.47;0.93;;;;;;;;;;5094269;28;20471;-72
2023/04/01 14:14:56;;;;;;;1.77;0.93;;;;;;;;;;5093956;28;21023;-72
2023/04/01 14:17:33;;;;;;;1.40;1.00;;;;;;;;;;5093765;28;20488;-72
2023/04/01 14:20:16;;;;;;;1.90;1.13;;;;;;;;;;5094041;28;20519;-72
2023/04/01 14:22:46;;;;;;;1.70;1.10;;;;;;;;;;5094372;28;20469;-72
2023/04/01 14:25:40;;;;;;;1.30;0.80;;;;;;;;;;5093722;28;20451;-72
2023/04/01 14:28:14;;;;;;;1.67;1.10;;;;;;;;;;5094031;28;20462;-72
2023/04/01 14:30:52;;;;;;;1.70;1.20;;;;;;;;;;5093850;28;20492;-72
2023/04/01 14:33:27;;;;;;;2.30;1.60;;;;;;;;;;5093730;28;20443;-72
2023/04/01 14:36:00;;;;;;;1.30;0.97;;;;;;;;;;5093776;28;20461;-72
2023/04/01 14:38:37;;;;;;;1.80;1.10;;;;;;;;;;5093639;28;20459;-72
2023/04/01 14:41:18;;;;;;;1.70;1.10;;;;;;;;;;5073659;28;20988;-72
2023/04/01 14:43:49;;;;;;;2.40;1.00;;;;;;;;;;5073295;28;20459;-72
2023/04/01 14:46:34;;;;;;;1.83;1.07;;;;;;;;;;5073320;28;20479;-72
2023/04/01 14:49:03;;;;;;;1.83;1.00;;;;;;;;;;5073508;28;20466;-72
2023/04/01 14:51:31;;;;;;;2.37;1.13;;;;;;;;;;5073113;28;20495;-72
2023/04/01 14:54:01;;;;;;;1.70;1.10;;;;;;;;;;5073084;28;20899;-73
2023/04/01 14:56:41;;;;;;;1.60;1.20;;;;;;;;;;5073202;28;20451;-73
2023/04/01 14:59:10;;;;;;;1.40;1.00;;;;;;;;;;5073243;28;20513;-73
2023/04/01 15:01:42;;;;;;;2.20;0.90;;;;;;;;;;5073261;28;20472;-73
2023/04/01 15:04:18;;;;;;;2.03;1.33;;;;;;;;;;5073188;28;20448;-73
2023/04/01 15:07:01;;;;;;;3.60;2.33;;;;;;;;;;5073106;28;20440;-72
2023/04/01 15:09:32;;;;;;;1.90;1.50;;;;;;;;;;5073110;28;20549;-73
2023/04/01 15:12:09;;;;;;;2.67;1.50;;;;;;;;;;5073054;28;20525;-73
2023/04/01 15:14:49;;;;;;;2.57;1.30;;;;;;;;;;5073181;28;20443;-75
2023/04/01 15:17:21;;;;;;;2.00;1.63;;;;;;;;;;5072883;28;20446;-75
2023/04/01 15:20:00;;;;;;;1.90;1.30;;;;;;;;;;5073134;28;20534;-75